Time;durP1;ratioP1;P1;durP2;ratioP2;P2;SDS_P1;SDS_P2;PMS_P1;PMS_P2;Temp;Humidity;BMP_temperature;BMP_pressure;BME280_temperature;BME280_humidity;BME280_pressure;Samples;Min_cycle;Max_cycle;Signal;HPM_P1;HPM_P2
2022/09/30 00:01:31;;;;;;;10.10;5.25;;;10.40;99.90;;;;;;6041538;23;20010;-87
2022/09/30 00:03:58;;;;;;;11.00;5.78;;;11.10;99.90;;;;;;6065890;23;20014;-87
2022/09/30 00:06:25;;;;;;;13.57;6.25;;;10.10;99.90;;;;;;6042767;23;20014;-87
2022/09/30 00:08:52;;;;;;;10.60;6.20;;;10.10;99.90;;;;;;6040958;23;20018;-87
2022/09/30 00:11:27;;;;;;;13.20;6.30;;;10.30;99.90;;;;;;6065796;23;20089;-86
2022/09/30 00:13:54;;;;;;;10.60;6.10;;;10.40;99.90;;;;;;6042746;23;20019;-87
2022/09/30 00:16:22;;;;;;;12.23;6.00;;;10.00;99.90;;;;;;6065924;23;20022;-86
2022/09/30 00:18:48;;;;;;;11.63;6.50;;;10.00;99.90;;;;;;6066356;23;20007;-86
2022/09/30 00:21:14;;;;;;;10.07;5.38;;;10.00;99.90;;;;;;6066857;23;20444;-87
2022/09/30 00:23:41;;;;;;;11.13;5.72;;;9.90;99.90;;;;;;6040892;23;20014;-86
2022/09/30 00:26:19;;;;;;;11.13;5.70;;;9.90;99.90;;;;;;6066602;23;20412;-87
2022/09/30 00:28:50;;;;;;;11.07;6.35;;;9.90;99.90;;;;;;6042397;23;20029;-87
2022/09/30 00:31:18;;;;;;;11.43;5.68;;;9.90;99.90;;;;;;6063222;23;20078;-87
2022/09/30 00:34:05;;;;;;;9.98;5.30;;;9.90;99.90;;;;;;6065766;23;20011;-87
2022/09/30 00:36:30;;;;;;;11.10;5.50;;;9.80;99.90;;;;;;6065022;23;20401;-87
2022/09/30 00:38:56;;;;;;;10.88;5.10;;;9.70;99.90;;;;;;6041362;23;20146;-87
2022/09/30 00:41:22;;;;;;;11.02;5.28;;;10.00;99.90;;;;;;6042459;23;20021;-86
2022/09/30 00:43:52;;;;;;;9.45;4.78;;;9.70;99.90;;;;;;6041349;23;20034;-87
2022/09/30 00:46:21;;;;;;;12.23;5.07;;;10.30;99.90;;;;;;6020316;23;20017;-87
2022/09/30 00:48:52;;;;;;;12.20;5.30;;;10.50;99.90;;;;;;6066454;23;20025;-87
2022/09/30 00:51:27;;;;;;;9.57;4.95;;;9.70;99.90;;;;;;6041903;23;20018;-87
2022/09/30 00:54:03;;;;;;;9.75;5.15;;;9.60;99.90;;;;;;6040968;23;20465;-87
2022/09/30 00:56:37;;;;;;;10.68;5.32;;;10.20;99.90;;;;;;6066317;23;20081;-87
2022/09/30 00:59:08;;;;;;;11.85;5.25;;;9.60;99.90;;;;;;6066162;23;20381;-87
2022/09/30 01:01:38;;;;;;;9.82;5.47;;;9.60;99.90;;;;;;6042164;23;20018;-87
2022/09/30 01:04:25;;;;;;;11.68;5.30;;;9.60;99.90;;;;;;6065609;23;20014;-86
2022/09/30 01:06:51;;;;;;;10.55;5.82;;;9.60;99.90;;;;;;6065257;23;20014;-87
2022/09/30 01:09:18;;;;;;;9.52;5.47;;;9.60;99.90;;;;;;6065671;23;20329;-87
2022/09/30 01:11:44;;;;;;;11.38;5.82;;;9.60;99.90;;;;;;6026350;23;20047;-87
2022/09/30 01:14:21;;;;;;;12.10;5.78;;;9.60;99.90;;;;;;6061432;23;20015;-87
2022/09/30 01:17:19;;;;;;;12.23;6.10;;;9.60;99.90;;;;;;6061252;23;20452;-87
2022/09/30 01:20:25;;;;;;;11.20;6.15;;;9.60;99.90;;;;;;6061526;23;20014;-87
2022/09/30 01:23:00;;;;;;;10.68;6.25;;;9.60;99.90;;;;;;6062315;23;20135;-87
2022/09/30 01:25:41;;;;;;;11.13;6.25;;;9.60;99.90;;;;;;6064611;23;20029;-87
2022/09/30 01:28:22;;;;;;;11.32;6.43;;;9.60;99.90;;;;;;6067676;23;20014;-87
2022/09/30 01:31:13;;;;;;;13.68;6.57;;;9.50;99.90;;;;;;6068588;23;20344;-87
2022/09/30 01:33:56;;;;;;;11.38;5.78;;;9.50;99.90;;;;;;6066988;23;20471;-87
2022/09/30 01:36:43;;;;;;;11.23;6.05;;;9.40;99.90;;;;;;6042121;23;20057;-87
2022/09/30 01:39:35;;;;;;;12.50;6.22;;;10.40;99.90;;;;;;6068006;23;20408;-87
2022/09/30 01:42:21;;;;;;;10.90;5.78;;;9.40;99.90;;;;;;5990347;23;20021;-87
2022/09/30 01:45:06;;;;;;;10.55;6.22;;;9.40;99.90;;;;;;6044305;23;20355;-87
2022/09/30 01:47:39;;;;;;;12.68;6.90;;;9.40;99.90;;;;;;6042501;23;20098;-87
2022/09/30 01:50:14;;;;;;;11.45;6.22;;;9.50;99.90;;;;;;6043989;23;20054;-87
2022/09/30 01:53:09;;;;;;;13.40;7.18;;;9.50;99.90;;;;;;6067258;23;20018;-87
2022/09/30 01:55:37;;;;;;;12.93;7.70;;;9.50;99.90;;;;;;6031346;23;20030;-87
2022/09/30 01:58:15;;;;;;;11.75;6.80;;;9.50;99.90;;;;;;6066999;23;20025;-87
2022/09/30 02:00:47;;;;;;;15.52;7.05;;;9.40;99.90;;;;;;6067533;23;20072;-87
2022/09/30 02:03:20;;;;;;;11.27;6.45;;;9.40;99.90;;;;;;6066832;23;20016;-87
2022/09/30 02:06:01;;;;;;;11.55;6.55;;;9.40;99.90;;;;;;6044484;23;20380;-87
2022/09/30 02:09:02;;;;;;;12.40;6.93;;;9.40;99.90;;;;;;6042494;23;20545;-87
2022/09/30 02:11:31;;;;;;;10.90;6.15;;;9.30;99.90;;;;;;6067235;23;20014;-87
2022/09/30 02:14:10;;;;;;;13.98;7.40;;;10.30;99.90;;;;;;6043074;23;20348;-87
2022/09/30 02:16:44;;;;;;;12.10;7.18;;;9.30;99.90;;;;;;6043753;23;20018;-86
2022/09/30 02:19:44;;;;;;;11.75;7.03;;;9.30;99.90;;;;;;6041775;23;20026;-87
2022/09/30 02:22:22;;;;;;;12.32;6.32;;;9.20;99.90;;;;;;5968112;23;20479;-87
2022/09/30 02:24:55;;;;;;;10.93;6.35;;;9.20;99.90;;;;;;6042803;23;20142;-87
2022/09/30 02:27:33;;;;;;;10.18;5.70;;;9.20;99.90;;;;;;6067462;23;20018;-87
2022/09/30 02:30:02;;;;;;;10.95;5.75;;;9.20;99.90;;;;;;6042890;23;20029;-87
2022/09/30 02:32:36;;;;;;;10.13;6.07;;;9.10;99.90;;;;;;6019792;23;20381;-87
2022/09/30 02:35:08;;;;;;;9.88;5.45;;;9.10;99.90;;;;;;6067865;23;20446;-87
2022/09/30 02:37:39;;;;;;;11.80;6.50;;;9.10;99.90;;;;;;6042597;23;20060;-87
2022/09/30 02:40:09;;;;;;;11.50;6.25;;;9.00;99.90;;;;;;6043351;23;20007;-87
2022/09/30 02:42:36;;;;;;;11.55;6.20;;;9.00;99.90;;;;;;6043798;23;20025;-87
2022/09/30 02:45:07;;;;;;;11.45;6.63;;;9.00;99.90;;;;;;6019426;23;20344;-86
2022/09/30 02:48:02;;;;;;;11.43;6.05;;;9.00;99.90;;;;;;6043201;23;20022;-87
2022/09/30 02:50:38;;;;;;;14.02;6.25;;;9.00;99.90;;;;;;6043860;23;20014;-87
2022/09/30 02:53:26;;;;;;;11.32;5.43;;;8.90;99.90;;;;;;6042103;23;20018;-87
2022/09/30 02:56:25;;;;;;;10.82;5.03;;;8.90;99.90;;;;;;6043341;23;20018;-87
2022/09/30 02:58:52;;;;;;;11.35;5.28;;;8.90;99.90;;;;;;6066739;23;20010;-87
2022/09/30 03:01:19;;;;;;;9.95;5.07;;;9.30;99.90;;;;;;6041605;23;20014;-87
2022/09/30 03:04:06;;;;;;;10.65;5.55;;;8.80;99.90;;;;;;6042912;23;20345;-87
2022/09/30 03:06:35;;;;;;;11.13;5.82;;;8.80;99.90;;;;;;6067093;23;20097;-86
2022/09/30 03:09:01;;;;;;;10.80;5.57;;;8.90;99.90;;;;;;6043332;23;20021;-87
2022/09/30 03:11:28;;;;;;;11.55;5.88;;;9.00;99.90;;;;;;6042435;23;20014;-87
2022/09/30 03:14:03;;;;;;;9.90;5.18;;;8.70;99.90;;;;;;6042398;23;20437;-87
2022/09/30 03:16:39;;;;;;;10.73;5.13;;;9.20;99.90;;;;;;6042552;23;20014;-87
2022/09/30 03:19:28;;;;;;;10.55;4.88;;;8.70;99.90;;;;;;6042690;23;20011;-87
2022/09/30 03:22:19;;;;;;;9.70;5.10;;;8.70;99.90;;;;;;6041228;23;20397;-87
2022/09/30 03:24:54;;;;;;;8.93;5.00;;;8.60;99.90;;;;;;6042951;23;20355;-87
2022/09/30 03:27:39;;;;;;;11.05;5.03;;;8.60;99.90;;;;;;6041804;23;20081;-86
2022/09/30 03:30:10;;;;;;;9.23;5.28;;;8.50;99.90;;;;;;6042420;23;20081;-87
2022/09/30 03:32:47;;;;;;;8.50;4.53;;;8.50;99.90;;;;;;6066396;23;20042;-87
2022/09/30 03:35:50;;;;;;;8.63;4.45;;;8.40;99.90;;;;;;6067028;23;20015;-87
2022/09/30 03:38:56;;;;;;;9.00;4.15;;;8.40;99.90;;;;;;6066347;23;20010;-87
2022/09/30 03:41:48;;;;;;;8.60;3.90;;;8.30;99.90;;;;;;6065406;23;20472;-86
2022/09/30 03:44:16;;;;;;;8.02;4.03;;;8.30;99.90;;;;;;6041627;23;20018;-86
2022/09/30 03:46:46;;;;;;;8.93;4.65;;;8.50;99.90;;;;;;6067021;23;20392;-86
2022/09/30 03:49:22;;;;;;;9.60;5.05;;;8.20;99.90;;;;;;6042782;23;20479;-86
2022/09/30 03:51:48;;;;;;;8.48;4.13;;;8.20;99.90;;;;;;6043349;23;20018;-87
2022/09/30 03:54:15;;;;;;;8.18;4.32;;;8.20;99.90;;;;;;6064117;23;20081;-86
2022/09/30 03:56:42;;;;;;;8.77;4.45;;;8.20;99.90;;;;;;6066344;23;20017;-87
2022/09/30 03:59:16;;;;;;;9.07;4.47;;;8.20;99.90;;;;;;6042439;23;20267;-87
2022/09/30 04:01:42;;;;;;;8.18;4.20;;;8.10;99.90;;;;;;6042217;23;20452;-87
2022/09/30 04:04:07;;;;;;;8.30;4.20;;;9.10;99.90;;;;;;6041594;23;20029;-87
2022/09/30 04:06:33;;;;;;;8.77;4.72;;;8.10;99.90;;;;;;6043415;23;20025;-86
2022/09/30 04:08:59;;;;;;;9.18;4.65;;;8.10;99.90;;;;;;6064773;23;20050;-86
2022/09/30 04:11:25;;;;;;;9.70;4.72;;;8.10;99.90;;;;;;6066469;23;20018;-87
2022/09/30 04:13:50;;;;;;;9.63;5.10;;;8.20;99.90;;;;;;6041899;23;20077;-87
2022/09/30 04:16:16;;;;;;;9.18;4.65;;;9.40;99.90;;;;;;6042037;23;20018;-87
2022/09/30 04:18:42;;;;;;;9.10;4.72;;;8.90;99.90;;;;;;6066470;23;20042;-87
2022/09/30 04:21:10;;;;;;;10.90;4.70;;;8.10;99.90;;;;;;6042617;23;20014;-87
2022/09/30 04:23:37;;;;;;;8.63;4.68;;;8.10;99.90;;;;;;6065681;23;20010;-86
2022/09/30 04:26:04;;;;;;;9.88;4.68;;;8.10;99.90;;;;;;6041458;23;20029;-87
2022/09/30 04:28:30;;;;;;;9.57;5.10;;;8.10;99.90;;;;;;6042507;23;20460;-87
2022/09/30 04:30:58;;;;;;;9.27;5.07;;;8.10;99.90;;;;;;6042947;23;20125;-87
2022/09/30 04:33:24;;;;;;;9.13;4.97;;;8.00;99.90;;;;;;6019070;23;20275;-87
2022/09/30 04:35:56;;;;;;;9.35;5.18;;;8.00;99.90;;;;;;6017382;23;20159;-87
2022/09/30 04:38:23;;;;;;;8.98;4.95;;;8.00;99.90;;;;;;6042094;23;20046;-86
2022/09/30 04:40:50;;;;;;;10.35;5.28;;;8.10;99.90;;;;;;6042365;23;20015;-87
2022/09/30 04:43:21;;;;;;;8.85;4.72;;;8.40;99.90;;;;;;6041911;23;20093;-86
2022/09/30 04:45:47;;;;;;;9.43;5.03;;;8.10;99.90;;;;;;6041290;23;20022;-86
2022/09/30 04:48:13;;;;;;;10.70;5.60;;;8.30;99.90;;;;;;6040144;23;20110;-86
2022/09/30 04:50:39;;;;;;;9.82;5.15;;;8.10;99.90;;;;;;6038309;23;20018;-86
2022/09/30 04:53:06;;;;;;;10.68;5.20;;;8.10;99.90;;;;;;6040705;23;20014;-87
2022/09/30 04:55:32;;;;;;;9.00;4.65;;;8.00;99.90;;;;;;6065972;23;20452;-86
2022/09/30 04:57:58;;;;;;;8.93;4.82;;;8.00;99.90;;;;;;6068581;23;20037;-86
2022/09/30 05:00:24;;;;;;;8.68;4.40;;;8.70;99.90;;;;;;6043063;23;20046;-87
2022/09/30 05:02:51;;;;;;;9.60;4.63;;;8.00;99.90;;;;;;6022074;23;20014;-87
2022/09/30 05:05:17;;;;;;;10.95;4.78;;;8.00;99.90;;;;;;6043847;23;20014;-87
2022/09/30 05:07:43;;;;;;;10.68;4.72;;;8.00;99.90;;;;;;6044962;23;20014;-86
2022/09/30 05:10:10;;;;;;;10.27;5.25;;;9.30;99.90;;;;;;6045111;23;20026;-87
2022/09/30 05:12:39;;;;;;;9.20;5.10;;;7.90;99.90;;;;;;6021750;23;20070;-87
2022/09/30 05:15:06;;;;;;;9.57;5.38;;;9.10;99.90;;;;;;6042823;23;20094;-86
2022/09/30 05:17:32;;;;;;;9.90;5.43;;;7.90;99.90;;;;;;6019802;23;20150;-87
2022/09/30 05:19:58;;;;;;;9.45;5.38;;;7.90;99.90;;;;;;6067182;23;20460;-87
2022/09/30 05:22:24;;;;;;;12.02;6.10;;;8.50;99.90;;;;;;6022505;23;20022;-87
2022/09/30 05:24:51;;;;;;;12.68;6.20;;;7.90;99.90;;;;;;6021384;23;20025;-86
2022/09/30 05:27:18;;;;;;;9.40;5.50;;;7.90;99.90;;;;;;6043062;23;20022;-86
2022/09/30 05:29:43;;;;;;;10.57;5.20;;;7.90;99.90;;;;;;6044529;23;20026;-86
2022/09/30 05:32:10;;;;;;;9.80;5.53;;;8.80;99.90;;;;;;6043887;23;20026;-85
2022/09/30 05:34:37;;;;;;;9.48;5.32;;;7.90;99.90;;;;;;6043901;23;20025;-87
2022/09/30 05:37:04;;;;;;;9.50;5.35;;;8.20;99.90;;;;;;6020407;23;20093;-86
2022/09/30 05:39:30;;;;;;;10.05;5.50;;;7.80;99.90;;;;;;6043663;23;20022;-86
2022/09/30 05:41:57;;;;;;;9.80;5.45;;;7.80;99.90;;;;;;6044489;23;20011;-86
2022/09/30 05:44:23;;;;;;;9.68;5.40;;;7.90;99.90;;;;;;6044522;23;20018;-86
2022/09/30 05:46:48;;;;;;;10.55;5.63;;;7.90;99.90;;;;;;6043680;23;20025;-86
2022/09/30 05:49:14;;;;;;;12.73;5.82;;;7.90;99.90;;;;;;6044820;23;20019;-86
2022/09/30 05:51:40;;;;;;;10.32;5.60;;;7.90;99.90;;;;;;6044512;23;20455;-86
2022/09/30 05:54:06;;;;;;;10.85;6.22;;;8.00;99.90;;;;;;6019532;23;20025;-86
2022/09/30 05:56:33;;;;;;;10.18;5.93;;;7.90;99.90;;;;;;6043381;23;20015;-85
2022/09/30 05:58:59;;;;;;;11.75;6.10;;;8.00;99.90;;;;;;6040527;23;20018;-86
2022/09/30 06:01:25;;;;;;;11.85;6.00;;;7.90;99.90;;;;;;6042300;23;20041;-91
2022/09/30 06:03:51;;;;;;;10.30;5.68;;;7.90;99.90;;;;;;6043338;23;20057;-90
2022/09/30 06:06:20;;;;;;;9.95;5.45;;;8.20;99.90;;;;;;6068965;23;20089;-91
2022/09/30 06:08:46;;;;;;;9.88;5.60;;;8.60;99.90;;;;;;6023448;23;20025;-90
2022/09/30 06:11:14;;;;;;;10.60;5.75;;;8.20;99.90;;;;;;6045272;23;20014;-93
2022/09/30 06:13:43;;;;;;;10.30;5.55;;;7.90;99.90;;;;;;6045955;23;20014;-92
2022/09/30 06:16:12;;;;;;;12.20;6.68;;;7.90;99.90;;;;;;6069750;23;20046;-94
2022/09/30 06:18:40;;;;;;;11.02;5.72;;;7.90;99.90;;;;;;6044824;23;20063;-92
2022/09/30 06:21:08;;;;;;;10.02;5.88;;;8.60;99.90;;;;;;6045855;23;20074;-95
2022/09/30 06:23:36;;;;;;;10.82;5.80;;;7.90;99.90;;;;;;6046187;23;20359;-90
2022/09/30 06:26:04;;;;;;;11.85;6.05;;;9.50;99.90;;;;;;6090782;23;20015;-90
2022/09/30 06:28:34;;;;;;;10.90;5.85;;;8.10;99.90;;;;;;6045216;23;20053;-91
2022/09/30 06:31:03;;;;;;;11.15;5.72;;;8.20;99.90;;;;;;6047361;23;20019;-94
2022/09/30 06:33:29;;;;;;;10.20;5.80;;;8.80;99.90;;;;;;6045439;23;20026;-88
2022/09/30 06:35:55;;;;;;;10.38;5.88;;;8.70;99.90;;;;;;6092225;23;20018;-87
2022/09/30 06:38:22;;;;;;;11.73;6.07;;;9.40;99.90;;;;;;6041540;23;20090;-88
2022/09/30 06:40:49;;;;;;;11.57;6.07;;;8.30;99.90;;;;;;6043408;23;20507;-90
2022/09/30 06:43:17;;;;;;;12.18;6.30;;;;;;;;;;6065845;23;20010;-90
2022/09/30 06:45:48;;;;;;;9.82;5.50;;;8.50;99.90;;;;;;6066776;23;20445;-85
2022/09/30 06:48:15;;;;;;;10.80;5.72;;;8.60;99.90;;;;;;6042244;23;20018;-87
2022/09/30 06:50:41;;;;;;;10.50;5.75;;;8.60;99.90;;;;;;6018712;23;20021;-87
2022/09/30 06:53:07;;;;;;;9.95;5.22;;;8.60;99.90;;;;;;5996241;23;20089;-88
2022/09/30 06:55:37;;;;;;;10.23;5.68;;;8.70;99.90;;;;;;6041599;23;20041;-90
2022/09/30 06:58:07;;;;;;;9.82;5.10;;;8.70;99.90;;;;;;6044055;23;20015;-88
2022/09/30 07:00:33;;;;;;;11.20;5.53;;;9.10;99.90;;;;;;6043147;23;20018;-89
2022/09/30 07:03:01;;;;;;;10.95;5.85;;;8.80;99.90;;;;;;6020122;23;20069;-87
2022/09/30 07:05:28;;;;;;;11.85;5.75;;;8.90;99.90;;;;;;6066835;23;20097;-89
2022/09/30 07:07:53;;;;;;;10.77;5.75;;;10.20;99.90;;;;;;6043970;23;20046;-88
2022/09/30 07:10:19;;;;;;;9.75;5.15;;;9.00;99.90;;;;;;6020304;23;20025;-87
2022/09/30 07:12:50;;;;;;;10.52;5.68;;;9.10;99.90;;;;;;6044024;23;20019;-92
2022/09/30 07:15:16;;;;;;;9.43;4.80;;;9.20;99.90;;;;;;6066191;23;20025;-92
2022/09/30 07:17:42;;;;;;;10.30;5.28;;;9.20;99.90;;;;;;6044000;23;20017;-90
2022/09/30 07:20:08;;;;;;;10.00;5.50;;;9.30;99.90;;;;;;6022631;23;20014;-94
2022/09/30 07:22:34;;;;;;;9.20;4.88;;;9.30;99.90;;;;;;6025632;23;20015;-94
2022/09/30 07:25:04;;;;;;;9.43;4.93;;;9.40;99.90;;;;;;6050559;23;20022;-95
2022/09/30 07:27:32;;;;;;;9.98;5.05;;;9.40;99.90;;;;;;6050186;23;20449;-95
2022/09/30 07:30:08;;;;;;;9.98;5.25;;;9.50;99.90;;;;;;6056338;23;20027;-96
2022/09/30 07:32:36;;;;;;;10.48;5.50;;;9.60;99.90;;;;;;6030111;23;20061;-91
2022/09/30 07:35:12;;;;;;;11.23;5.85;;;11.20;99.90;;;;;;6044033;23;20032;-89
2022/09/30 07:37:38;;;;;;;9.95;5.03;;;9.70;99.90;;;;;;6043615;23;20097;-89
2022/09/30 07:40:06;;;;;;;10.23;5.13;;;9.80;99.90;;;;;;6066617;23;20050;-86
2022/09/30 07:42:32;;;;;;;10.55;4.90;;;9.90;99.90;;;;;;6043773;23;20015;-91
2022/09/30 07:44:58;;;;;;;10.43;5.10;;;10.40;99.90;;;;;;6044682;23;20081;-92
2022/09/30 07:47:24;;;;;;;11.43;5.45;;;10.00;99.90;;;;;;6070977;23;20015;-95
2022/09/30 07:49:50;;;;;;;8.90;4.60;;;10.10;99.90;;;;;;6048328;23;20010;-94
2022/09/30 07:52:15;;;;;;;10.32;4.80;;;10.20;99.90;;;;;;6049269;23;20014;-94
2022/09/30 07:54:42;;;;;;;10.23;5.10;;;10.20;99.90;;;;;;6048130;23;20018;-91
2022/09/30 07:57:08;;;;;;;9.30;4.60;;;10.40;99.90;;;;;;6052968;23;20006;-88
2022/09/30 07:59:38;;;;;;;9.93;4.78;;;10.40;99.90;;;;;;6018060;23;20030;-90
2022/09/30 08:02:05;;;;;;;9.40;4.78;;;10.50;99.90;;;;;;6043723;23;20452;-91
2022/09/30 08:04:31;;;;;;;9.32;4.35;;;;;;;;;;6043749;23;20089;-95
2022/09/30 08:06:59;;;;;;;10.65;4.97;;;10.70;99.90;;;;;;6043164;23;20026;-86
2022/09/30 08:09:26;;;;;;;9.27;4.55;;;10.80;99.90;;;;;;6041390;23;20019;-87
2022/09/30 08:11:53;;;;;;;9.73;5.10;;;10.90;99.90;;;;;;6042319;23;20019;-87
2022/09/30 08:14:23;;;;;;;9.40;4.85;;;10.90;99.90;;;;;;6042627;23;20065;-93
2022/09/30 08:16:49;;;;;;;10.13;4.75;;;11.00;99.90;;;;;;6042956;23;20015;-87
2022/09/30 08:19:17;;;;;;;13.70;5.60;;;11.00;99.90;;;;;;6066809;23;20507;-87
2022/09/30 08:21:43;;;;;;;10.43;5.35;;;11.10;99.90;;;;;;6050150;23;20011;-87
2022/09/30 08:24:10;;;;;;;10.98;5.50;;;11.20;99.90;;;;;;6061888;23;20523;-90
2022/09/30 08:26:37;;;;;;;11.68;6.20;;;11.20;99.90;;;;;;6042180;23;20123;-94
2022/09/30 08:29:02;;;;;;;10.43;5.80;;;11.30;99.90;;;;;;6042472;23;20467;-90
2022/09/30 08:31:28;;;;;;;11.07;6.13;;;11.50;99.90;;;;;;6042987;23;20028;-91
2022/09/30 08:33:55;;;;;;;10.25;5.53;;;11.50;99.90;;;;;;6043365;23;20563;-89
2022/09/30 08:36:26;;;;;;;10.90;5.57;;;11.60;99.90;;;;;;6042256;23;20014;-88
2022/09/30 08:38:53;;;;;;;10.05;4.90;;;12.80;99.90;;;;;;6067296;23;20025;-88
2022/09/30 08:41:40;;;;;;;10.90;5.25;;;11.70;99.90;;;;;;6066035;23;20014;-88
2022/09/30 08:44:24;;;;;;;10.02;4.93;;;11.80;99.90;;;;;;6066752;23;20011;-90
2022/09/30 08:47:18;;;;;;;11.45;5.03;;;11.90;99.90;;;;;;6067435;23;20267;-87
2022/09/30 08:50:08;;;;;;;10.27;4.97;;;12.00;99.90;;;;;;6067144;23;20352;-94
2022/09/30 08:52:53;;;;;;;10.45;5.22;;;12.10;99.90;;;;;;6044358;23;20085;-92
2022/09/30 08:55:25;;;;;;;11.57;5.65;;;12.20;99.90;;;;;;6043600;23;20021;-96
2022/09/30 08:57:53;;;;;;;11.20;5.47;;;12.30;99.90;;;;;;6044795;23;20060;-90
2022/09/30 09:00:21;;;;;;;11.57;5.55;;;12.30;99.90;;;;;;6044965;23;20020;-91
2022/09/30 09:02:49;;;;;;;11.05;5.45;;;12.40;99.90;;;;;;6044176;23;20020;-90
2022/09/30 09:05:59;;;;;;;9.82;5.35;;;12.50;99.90;;;;;;6042610;23;20070;-92
2022/09/30 09:08:42;;;;;;;10.60;5.72;;;12.60;99.90;;;;;;6070390;23;20507;-92
2022/09/30 09:11:40;;;;;;;11.47;6.00;;;12.70;99.90;;;;;;6068627;23;20018;-94
2022/09/30 09:14:35;;;;;;;12.80;5.85;;;12.70;99.90;;;;;;6064429;23;20050;-96
2022/09/30 09:17:27;;;;;;;11.20;6.10;;;12.80;99.90;;;;;;6066306;23;20118;-95
2022/09/30 09:20:03;;;;;;;11.05;6.03;;;12.90;99.90;;;;;;6040544;23;20409;-94
2022/09/30 09:22:30;;;;;;;10.10;5.93;;;13.00;99.90;;;;;;6043573;23;20050;-93
2022/09/30 09:24:57;;;;;;;13.07;6.30;;;13.10;99.90;;;;;;6042946;23;20014;-91
2022/09/30 09:27:31;;;;;;;11.60;6.47;;;13.20;99.90;;;;;;6092835;23;20018;-91
2022/09/30 09:30:08;;;;;;;11.18;5.85;;;13.20;99.90;;;;;;6065376;23;20018;-88
2022/09/30 09:32:35;;;;;;;11.48;5.13;;;13.40;99.90;;;;;;6043074;23;20026;-89
2022/09/30 09:35:12;;;;;;;11.27;4.85;;;13.50;99.90;;;;;;6043363;23;20026;-90
2022/09/30 09:38:23;;;;;;;10.43;4.75;;;13.70;99.90;;;;;;6042893;23;20024;-88
2022/09/30 09:41:13;;;;;;;9.32;4.28;;;13.80;99.90;;;;;;6066883;23;20014;-87
2022/09/30 09:43:50;;;;;;;9.23;4.10;;;14.00;99.90;;;;;;6066936;23;20093;-87
2022/09/30 09:46:42;;;;;;;8.55;4.07;;;14.10;99.90;;;;;;6043743;23;20017;-92
2022/09/30 09:49:19;;;;;;;9.73;4.75;;;14.20;99.90;;;;;;6067884;23;20050;-89
2022/09/30 09:51:57;;;;;;;9.98;4.63;;;14.30;99.90;;;;;;6069268;23;20022;-95
2022/09/30 09:54:30;;;;;;;8.80;4.15;;;14.30;99.90;;;;;;6069763;23;20014;-88
2022/09/30 09:56:59;;;;;;;11.68;4.57;;;;;;;;;;6069185;23;20019;-96
2022/09/30 09:59:32;;;;;;;9.23;3.88;;;14.40;99.90;;;;;;6071847;23;20105;-94
2022/09/30 10:02:36;;;;;;;8.55;3.90;;;14.40;99.90;;;;;;6048831;23;20010;-94
2022/09/30 10:05:10;;;;;;;7.72;3.17;;;14.30;99.90;;;;;;6031782;23;20464;-90
2022/09/30 10:07:36;;;;;;;8.30;3.45;;;14.30;99.90;;;;;;6042227;23;20467;-92
2022/09/30 10:10:29;;;;;;;7.50;3.00;;;14.40;99.90;;;;;;6045155;23;20022;-91
2022/09/30 10:12:54;;;;;;;7.07;2.90;;;14.40;99.90;;;;;;6040943;23;20348;-91
2022/09/30 10:15:25;;;;;;;7.50;3.25;;;14.50;99.90;;;;;;6045958;23;20010;-92
2022/09/30 10:17:56;;;;;;;7.97;2.95;;;14.50;99.90;;;;;;6046953;23;20057;-92
2022/09/30 10:20:33;;;;;;;7.55;3.20;;;14.50;99.90;;;;;;6046985;23;20025;-89
2022/09/30 10:23:01;;;;;;;7.60;3.10;;;14.50;99.90;;;;;;6045537;23;20052;-92
2022/09/30 10:25:28;;;;;;;7.22;2.97;;;14.60;99.90;;;;;;6069007;23;20014;-92
2022/09/30 10:27:57;;;;;;;7.20;2.80;;;14.70;99.90;;;;;;6045791;23;20049;-91
2022/09/30 10:30:37;;;;;;;6.85;2.70;;;14.70;99.90;;;;;;6045172;23;20022;-92
2022/09/30 10:33:09;;;;;;;6.95;2.90;;;14.80;99.90;;;;;;6068847;23;20022;-90
2022/09/30 10:35:55;;;;;;;8.63;2.53;;;14.70;99.90;;;;;;6046577;23;20010;-91
2022/09/30 10:38:24;;;;;;;8.85;2.90;;;14.70;99.90;;;;;;6068988;23;20508;-91
2022/09/30 10:40:50;;;;;;;6.63;2.80;;;14.80;99.90;;;;;;6045195;23;20065;-92
2022/09/30 10:43:38;;;;;;;7.55;2.70;;;14.80;99.90;;;;;;6067362;23;20029;-92
2022/09/30 10:46:04;;;;;;;9.80;3.58;;;14.90;99.90;;;;;;6043310;23;20018;-90
2022/09/30 10:48:35;;;;;;;8.98;4.40;;;15.10;99.90;;;;;;6044832;23;20018;-92
2022/09/30 10:51:03;;;;;;;9.55;4.20;;;15.10;99.90;;;;;;6067311;23;20089;-91
2022/09/30 10:53:34;;;;;;;9.63;4.70;;;14.90;99.90;;;;;;6044253;23;20018;-91
2022/09/30 10:56:00;;;;;;;8.88;4.20;;;15.20;99.90;;;;;;6045738;23;20046;-93
2022/09/30 10:58:59;;;;;;;11.55;5.10;;;15.20;99.90;;;;;;6048213;23;20018;-93
2022/09/30 11:01:35;;;;;;;9.00;4.00;;;15.10;99.90;;;;;;5969938;23;20014;-92
2022/09/30 11:04:18;;;;;;;7.68;3.00;;;15.00;99.90;;;;;;6046952;23;20014;-95
2022/09/30 11:06:46;;;;;;;8.60;3.47;;;15.10;99.90;;;;;;6056180;23;20015;-96
2022/09/30 11:09:36;;;;;;;8.15;3.38;;;15.20;99.90;;;;;;6044536;23;20022;-94
2022/09/30 11:12:16;;;;;;;7.47;3.17;;;15.30;99.90;;;;;;6041886;23;20015;-91
2022/09/30 11:14:59;;;;;;;9.95;2.88;;;15.50;99.90;;;;;;6054428;23;20038;-95
2022/09/30 11:17:36;;;;;;;;;;;15.60;99.90;;;;;;6042783;23;20501;-92
2022/09/30 11:20:37;;;;;;;7.53;2.50;;;15.60;99.90;;;;;;6045434;23;19937;-95
2022/09/30 11:23:23;;;;;;;5.80;2.15;;;15.80;99.90;;;;;;6046797;23;20025;-94
2022/09/30 11:26:00;;;;;;;6.53;2.40;;;15.90;99.90;;;;;;6069273;23;20018;-94
2022/09/30 11:28:30;;;;;;;6.35;2.33;;;16.00;99.90;;;;;;6068912;23;20018;-94
2022/09/30 11:31:01;;;;;;;6.65;2.60;;;16.10;99.90;;;;;;6046028;23;20081;-92
2022/09/30 11:33:55;;;;;;;6.30;2.40;;;16.20;99.90;;;;;;6045445;23;20098;-91
2022/09/30 11:36:58;;;;;;;6.80;2.38;;;16.30;99.90;;;;;;6050111;23;20337;-95
2022/09/30 11:39:39;;;;;;;8.52;2.45;;;16.40;99.90;;;;;;6018134;23;20465;-93
2022/09/30 11:42:33;;;;;;;8.35;2.75;;;16.50;99.90;;;;;;6051716;23;20014;-93
2022/09/30 11:45:07;;;;;;;6.75;2.22;;;16.60;99.90;;;;;;6046668;23;20494;-91
2022/09/30 11:48:05;;;;;;;7.43;2.40;;;16.60;99.90;;;;;;6044827;23;20022;-94
2022/09/30 11:50:31;;;;;;;6.70;2.53;;;16.60;99.90;;;;;;6045223;23;20081;-90
2022/09/30 11:53:13;;;;;;;7.85;2.72;;;16.70;99.90;;;;;;6052652;23;20018;-95
2022/09/30 11:56:32;;;;;;;6.38;2.40;;;16.70;99.90;;;;;;6080193;23;20021;-95
2022/09/30 11:59:01;;;;;;;6.95;2.50;;;16.80;99.90;;;;;;6048051;23;20069;-92
2022/09/30 12:01:33;;;;;;;8.10;2.65;;;16.80;99.90;;;;;;6048122;23;20337;-93
2022/09/30 12:04:18;;;;;;;7.10;2.83;;;16.70;99.90;;;;;;6045768;23;20010;-94
2022/09/30 12:06:56;;;;;;;6.93;2.47;;;16.50;99.90;;;;;;6050748;23;20015;-94
2022/09/30 12:09:43;;;;;;;6.35;2.50;;;16.50;99.90;;;;;;6049309;23;20021;-95
2022/09/30 12:12:15;;;;;;;8.23;2.90;;;16.30;99.90;;;;;;6046119;23;20016;-91
2022/09/30 12:14:54;;;;;;;6.65;2.53;;;16.30;99.90;;;;;;6047838;23;20082;-93
2022/09/30 12:17:20;;;;;;;7.18;2.53;;;;;;;;;;6049515;23;20094;-95
2022/09/30 12:19:54;;;;;;;6.38;2.30;;;16.20;99.90;;;;;;6075609;23;20527;-95
2022/09/30 12:22:29;;;;;;;6.85;2.00;;;16.40;99.90;;;;;;6050139;23;20456;-94
2022/09/30 12:24:54;;;;;;;6.30;2.25;;;16.60;99.90;;;;;;6043864;23;20097;-90
2022/09/30 12:27:32;;;;;;;5.85;2.10;;;16.80;99.90;;;;;;6044979;23;20022;-94
2022/09/30 12:30:19;;;;;;;5.88;2.17;;;16.80;99.90;;;;;;6067824;23;20274;-93
2022/09/30 12:33:27;;;;;;;6.13;2.20;;;16.90;99.90;;;;;;6048688;23;20030;-91
2022/09/30 12:36:07;;;;;;;5.88;2.15;;;17.00;99.90;;;;;;6043511;23;20085;-92
2022/09/30 12:39:21;;;;;;;7.93;2.90;;;16.80;99.90;;;;;;6067031;23;20051;-92
2022/09/30 12:42:02;;;;;;;7.43;2.20;;;16.70;99.90;;;;;;6043255;23;20021;-90
2022/09/30 12:45:16;;;;;;;6.72;1.98;;;16.60;99.90;;;;;;6044265;23;20014;-92
2022/09/30 12:47:55;;;;;;;4.35;1.77;;;16.80;99.90;;;;;;6001098;23;20054;-93
2022/09/30 12:50:33;;;;;;;5.82;1.95;;;16.80;99.90;;;;;;6045030;23;20046;-92
2022/09/30 12:53:20;;;;;;;3.90;1.67;;;16.80;99.90;;;;;;6076575;23;20073;-95
2022/09/30 12:55:46;;;;;;;5.35;1.90;;;16.60;99.90;;;;;;6048301;23;20045;-94
2022/09/30 12:58:20;;;;;;;4.53;1.50;;;16.40;99.90;;;;;;6042725;23;20026;-94
2022/09/30 13:00:59;;;;;;;4.57;1.70;;;16.20;99.90;;;;;;6033952;23;20014;-94
2022/09/30 13:03:25;;;;;;;6.05;1.55;;;16.00;99.90;;;;;;6069119;23;20010;-91
2022/09/30 13:06:05;;;;;;;3.65;1.55;;;16.00;99.90;;;;;;6066772;23;20042;-90
2022/09/30 13:08:42;;;;;;;5.35;1.67;;;15.90;99.90;;;;;;6067153;23;20018;-89
2022/09/30 13:11:30;;;;;;;5.43;1.85;;;15.90;99.90;;;;;;6040910;23;20025;-90
2022/09/30 13:14:05;;;;;;;4.93;1.75;;;15.80;99.90;;;;;;6028512;23;20034;-92
2022/09/30 13:17:02;;;;;;;5.03;1.85;;;15.70;99.90;;;;;;6067266;23;20026;-95
2022/09/30 13:19:50;;;;;;;6.40;1.80;;;15.70;99.90;;;;;;6047836;23;20015;-96
2022/09/30 13:22:19;;;;;;;4.55;1.70;;;;;;;;;;6043990;23;20465;-93
2022/09/30 13:25:01;;;;;;;6.30;2.10;;;15.70;99.90;;;;;;6067419;23;20025;-92